sensor_id;sensor_type;location;lat;lon;timestamp;P1;durP1;ratioP1;P2;durP2;ratioP2
76710;SDS011;65639;44.498;0.166;2023-04-01T00:18:50;11.03;;;3.00;;
76710;SDS011;65639;44.498;0.166;2023-04-01T00:39:17;19.47;;;2.70;;
76710;SDS011;65639;44.498;0.166;2023-04-01T00:59:47;17.03;;;2.50;;
76710;SDS011;65639;44.498;0.166;2023-04-01T01:20:28;17.43;;;2.57;;
76710;SDS011;65639;44.498;0.166;2023-04-01T01:40:45;16.80;;;2.23;;
76710;SDS011;65639;44.498;0.166;2023-04-01T02:01:13;18.87;;;3.17;;
76710;SDS011;65639;44.498;0.166;2023-04-01T02:21:41;18.40;;;3.43;;
76710;SDS011;65639;44.498;0.166;2023-04-01T02:42:09;16.90;;;2.70;;
76710;SDS011;65639;44.498;0.166;2023-04-01T03:02:38;20.60;;;2.33;;
76710;SDS011;65639;44.498;0.166;2023-04-01T03:23:05;21.17;;;2.87;;
76710;SDS011;65639;44.498;0.166;2023-04-01T03:43:35;21.53;;;2.97;;
76710;SDS011;65639;44.498;0.166;2023-04-01T04:04:04;19.10;;;2.90;;
76710;SDS011;65639;44.498;0.166;2023-04-01T04:24:34;17.07;;;3.00;;
76710;SDS011;65639;44.498;0.166;2023-04-01T04:45:03;23.00;;;2.70;;
76710;SDS011;65639;44.498;0.166;2023-04-01T05:05:30;19.20;;;2.60;;
76710;SDS011;65639;44.498;0.166;2023-04-01T05:26:02;4.33;;;0.80;;
76710;SDS011;65639;44.498;0.166;2023-04-01T05:46:28;17.00;;;2.20;;
76710;SDS011;65639;44.498;0.166;2023-04-01T06:06:56;18.40;;;2.40;;
76710;SDS011;65639;44.498;0.166;2023-04-01T06:27:29;13.87;;;2.20;;
76710;SDS011;65639;44.498;0.166;2023-04-01T06:47:57;13.00;;;2.10;;
76710;SDS011;65639;44.498;0.166;2023-04-01T07:08:24;15.67;;;2.13;;
76710;SDS011;65639;44.498;0.166;2023-04-01T07:28:52;19.30;;;2.97;;
76710;SDS011;65639;44.498;0.166;2023-04-01T07:49:23;23.90;;;2.87;;
76710;SDS011;65639;44.498;0.166;2023-04-01T08:09:54;16.53;;;2.87;;
76710;SDS011;65639;44.498;0.166;2023-04-01T08:30:18;15.10;;;2.13;;
76710;SDS011;65639;44.498;0.166;2023-04-01T08:50:50;13.27;;;1.97;;
76710;SDS011;65639;44.498;0.166;2023-04-01T09:11:18;14.87;;;2.43;;
76710;SDS011;65639;44.498;0.166;2023-04-01T09:31:56;13.37;;;2.53;;
76710;SDS011;65639;44.498;0.166;2023-04-01T09:52:20;16.53;;;2.73;;
76710;SDS011;65639;44.498;0.166;2023-04-01T10:12:46;15.87;;;2.13;;
76710;SDS011;65639;44.498;0.166;2023-04-01T10:33:22;14.33;;;2.80;;
76710;SDS011;65639;44.498;0.166;2023-04-01T10:53:46;6.87;;;1.47;;
76710;SDS011;65639;44.498;0.166;2023-04-01T11:14:16;8.13;;;1.63;;
76710;SDS011;65639;44.498;0.166;2023-04-01T11:55:13;8.43;;;1.33;;
76710;SDS011;65639;44.498;0.166;2023-04-01T12:15:43;2.77;;;0.53;;
76710;SDS011;65639;44.498;0.166;2023-04-01T12:36:04;6.80;;;1.10;;
76710;SDS011;65639;44.498;0.166;2023-04-01T12:56:27;7.93;;;1.07;;
76710;SDS011;65639;44.498;0.166;2023-04-01T13:16:56;3.47;;;0.60;;
76710;SDS011;65639;44.498;0.166;2023-04-01T13:37:29;5.77;;;0.90;;
76710;SDS011;65639;44.498;0.166;2023-04-01T13:58:02;6.07;;;1.27;;
76710;SDS011;65639;44.498;0.166;2023-04-01T14:18:32;8.30;;;0.90;;
76710;SDS011;65639;44.498;0.166;2023-04-01T14:38:52;2.70;;;0.53;;
76710;SDS011;65639;44.498;0.166;2023-04-01T14:59:26;0.70;;;0.30;;
76710;SDS011;65639;44.498;0.166;2023-04-01T15:19:50;4.67;;;0.80;;
76710;SDS011;65639;44.498;0.166;2023-04-01T15:40:22;4.03;;;0.90;;
76710;SDS011;65639;44.498;0.166;2023-04-01T16:00:49;6.30;;;0.70;;
76710;SDS011;65639;44.498;0.166;2023-04-01T16:21:11;0.90;;;0.27;;
76710;SDS011;65639;44.498;0.166;2023-04-01T16:41:39;0.93;;;0.23;;
76710;SDS011;65639;44.498;0.166;2023-04-01T17:02:09;3.47;;;0.70;;
76710;SDS011;65639;44.498;0.166;2023-04-01T17:22:38;5.63;;;0.70;;
76710;SDS011;65639;44.498;0.166;2023-04-01T17:43:06;8.03;;;1.10;;
76710;SDS011;65639;44.498;0.166;2023-04-01T18:03:44;7.37;;;1.27;;
76710;SDS011;65639;44.498;0.166;2023-04-01T18:23:59;3.43;;;1.00;;
76710;SDS011;65639;44.498;0.166;2023-04-01T18:44:29;5.70;;;0.90;;
76710;SDS011;65639;44.498;0.166;2023-04-01T19:04:56;5.13;;;0.90;;
76710;SDS011;65639;44.498;0.166;2023-04-01T19:25:26;7.27;;;1.20;;
76710;SDS011;65639;44.498;0.166;2023-04-01T19:45:52;7.27;;;1.13;;
76710;SDS011;65639;44.498;0.166;2023-04-01T20:06:22;21.20;;;3.10;;
76710;SDS011;65639;44.498;0.166;2023-04-01T20:26:50;3.37;;;1.10;;
76710;SDS011;65639;44.498;0.166;2023-04-01T20:47:21;11.00;;;1.20;;
76710;SDS011;65639;44.498;0.166;2023-04-01T21:07:46;4.43;;;1.20;;
76710;SDS011;65639;44.498;0.166;2023-04-01T21:48:47;8.37;;;1.50;;
76710;SDS011;65639;44.498;0.166;2023-04-01T22:09:11;4.63;;;1.10;;
76710;SDS011;65639;44.498;0.166;2023-04-01T22:29:38;-1.00;;;-1.00;;
76710;SDS011;65639;44.498;0.166;2023-04-01T22:50:07;10.77;;;1.20;;
76710;SDS011;65639;44.498;0.166;2023-04-01T23:10:36;9.03;;;1.23;;
76710;SDS011;65639;44.498;0.166;2023-04-01T23:31:02;7.80;;;1.47;;
76710;SDS011;65639;44.498;0.166;2023-04-01T23:51:36;5.33;;;1.00;;
